Time;durP1;ratioP1;P1;durP2;ratioP2;P2;SDS_P1;SDS_P2;PMS_P1;PMS_P2;Temp;Humidity;BMP_temperature;BMP_pressure;BME280_temperature;BME280_humidity;BME280_pressure;Samples;Min_cycle;Max_cycle;Signal;HPM_P1;HPM_P2
2023/01/01 00:01:10;;;;;;;10.90;8.48;;;15.80;72.90;;;;;;5135803;28;20514;-74
2023/01/01 00:03:36;;;;;;;11.55;8.00;;;15.90;72.90;;;;;;5135261;28;20425;-74
2023/01/01 00:06:07;;;;;;;11.57;8.45;;;15.90;73.00;;;;;;5116765;28;20045;-73
2023/01/01 00:08:33;;;;;;;;;;;15.80;72.80;;;;;;5135428;28;20490;-73
2023/01/01 00:11:07;;;;;;;11.38;7.15;;;15.90;72.90;;;;;;5135036;28;19918;-73
2023/01/01 00:13:34;;;;;;;12.18;7.30;;;15.80;72.80;;;;;;5082905;28;20047;-73
2023/01/01 00:16:05;;;;;;;10.43;6.28;;;15.80;72.60;;;;;;5135003;28;20039;-73
2023/01/01 00:18:30;;;;;;;9.23;6.05;;;15.80;72.50;;;;;;5135326;28;20042;-72
2023/01/01 00:21:10;;;;;;;9.05;5.80;;;15.90;72.50;;;;;;5135466;28;20043;-73
2023/01/01 00:23:36;;;;;;;8.32;5.53;;;15.90;72.40;;;;;;5135509;28;20485;-73
2023/01/01 00:26:09;;;;;;;7.80;5.22;;;15.90;72.40;;;;;;5116408;28;20482;-73
2023/01/01 00:28:34;;;;;;;8.32;4.88;;;15.90;72.40;;;;;;5099592;28;20047;-72
2023/01/01 00:31:07;;;;;;;7.65;4.32;;;15.90;72.40;;;;;;5116461;28;20047;-73
2023/01/01 00:33:32;;;;;;;9.00;4.80;;;15.80;72.10;;;;;;5134819;28;20043;-73
2023/01/01 00:36:05;;;;;;;9.45;4.72;;;15.90;72.00;;;;;;5135292;28;20125;-72
2023/01/01 00:38:32;;;;;;;7.07;3.85;;;15.90;72.20;;;;;;5134583;28;20047;-72
2023/01/01 00:40:57;;;;;;;9.00;4.40;;;15.90;72.10;;;;;;5099323;28;20045;-72
2023/01/01 00:43:23;;;;;;;9.68;4.03;;;15.90;71.90;;;;;;5116338;28;20035;-73
2023/01/01 00:45:52;;;;;;;6.63;3.50;;;15.90;71.80;;;;;;5134715;28;20031;-73
2023/01/01 00:48:18;;;;;;;8.80;3.53;;;15.90;71.90;;;;;;5115433;28;20424;-73
2023/01/01 00:50:44;;;;;;;7.90;3.05;;;15.80;71.90;;;;;;5134428;28;20067;-72
2023/01/01 00:53:10;;;;;;;5.43;3.17;;;15.80;72.20;;;;;;5115765;28;20070;-73
2023/01/01 00:55:38;;;;;;;6.00;2.60;;;15.80;72.30;;;;;;5134201;28;20065;-73
2023/01/01 00:58:03;;;;;;;5.50;2.70;;;15.70;72.40;;;;;;5134120;28;20042;-73
2023/01/01 01:00:29;;;;;;;6.03;2.75;;;15.70;72.50;;;;;;5098963;28;20043;-73
2023/01/01 01:02:54;;;;;;;4.97;2.60;;;15.60;72.70;;;;;;5134417;28;20083;-73
2023/01/01 01:05:20;;;;;;;3.92;2.40;;;15.60;72.70;;;;;;5115617;28;20479;-73
2023/01/01 01:07:46;;;;;;;4.30;2.15;;;15.50;72.80;;;;;;5133993;28;20146;-73
2023/01/01 01:10:11;;;;;;;5.38;2.20;;;15.60;72.80;;;;;;5115728;28;20499;-73
2023/01/01 01:12:37;;;;;;;4.95;2.30;;;15.60;72.80;;;;;;5133987;28;20035;-73
2023/01/01 01:15:04;;;;;;;4.43;2.00;;;15.60;72.90;;;;;;5115382;28;20092;-73
2023/01/01 01:17:30;;;;;;;3.95;1.98;;;15.60;72.70;;;;;;5098224;28;20036;-73
2023/01/01 01:19:56;;;;;;;3.95;2.10;;;15.60;72.70;;;;;;5134189;28;20039;-73
2023/01/01 01:22:22;;;;;;;3.88;1.95;;;15.60;72.70;;;;;;5115248;28;20054;-73
2023/01/01 01:24:47;;;;;;;4.85;2.17;;;15.60;72.50;;;;;;5133828;28;20398;-73
2023/01/01 01:27:13;;;;;;;6.18;2.22;;;15.60;72.40;;;;;;5115265;28;20039;-72
2023/01/01 01:29:39;;;;;;;4.20;2.00;;;15.60;72.50;;;;;;5133557;28;20051;-73
2023/01/01 01:32:05;;;;;;;4.07;1.70;;;15.50;72.40;;;;;;5133926;28;20065;-73
2023/01/01 01:34:30;;;;;;;4.03;1.85;;;15.50;72.40;;;;;;5134000;28;20043;-74
2023/01/01 01:36:56;;;;;;;3.97;2.00;;;15.50;72.20;;;;;;5133324;28;20035;-73
2023/01/01 01:39:22;;;;;;;2.72;1.70;;;15.50;72.00;;;;;;5133431;28;20073;-73
2023/01/01 01:41:48;;;;;;;4.93;1.80;;;15.50;71.80;;;;;;5133465;28;20122;-72
2023/01/01 01:44:50;;;;;;;3.22;1.70;;;15.50;71.90;;;;;;5115218;28;20122;-72
2023/01/01 01:47:34;;;;;;;3.50;1.63;;;15.50;72.00;;;;;;5133086;28;20035;-73
2023/01/01 01:50:15;;;;;;;3.08;1.50;;;15.50;72.10;;;;;;5133418;28;20050;-73
2023/01/01 01:52:57;;;;;;;3.15;1.50;;;15.40;72.10;;;;;;5133281;28;20039;-72
2023/01/01 01:55:27;;;;;;;3.50;1.20;;;15.50;72.20;;;;;;5133051;28;20047;-72
2023/01/01 01:57:53;;;;;;;3.35;1.60;;;15.50;72.20;;;;;;5114675;27;20047;-71
2023/01/01 02:00:18;;;;;;;2.95;1.48;;;15.50;72.10;;;;;;5132348;28;20046;-72
2023/01/01 02:03:01;;;;;;;4.35;1.50;;;15.50;72.10;;;;;;5133641;28;20035;-72
2023/01/01 02:05:28;;;;;;;3.33;1.60;;;15.40;72.10;;;;;;5114617;28;20149;-72
2023/01/01 02:07:55;;;;;;;3.75;1.60;;;15.40;71.90;;;;;;5114662;28;20374;-72
2023/01/01 02:10:21;;;;;;;3.08;1.40;;;15.50;71.70;;;;;;5114628;28;20039;-72
2023/01/01 02:12:47;;;;;;;5.53;1.58;;;15.50;71.70;;;;;;5133068;28;20410;-72
2023/01/01 02:15:13;;;;;;;2.45;1.50;;;15.50;71.70;;;;;;5115003;28;20122;-73
2023/01/01 02:17:58;;;;;;;1.70;1.10;;;15.40;71.60;;;;;;5114519;28;20050;-73
2023/01/01 02:20:48;;;;;;;2.67;1.30;;;15.40;71.70;;;;;;5132826;28;20040;-72
2023/01/01 02:23:42;;;;;;;4.10;1.65;;;15.50;72.40;;;;;;5115081;28;20035;-72
2023/01/01 02:26:24;;;;;;;4.03;1.52;;;15.40;71.70;;;;;;5133311;28;20066;-72
2023/01/01 02:29:04;;;;;;;4.00;1.67;;;15.40;71.60;;;;;;5133484;28;20218;-73
2023/01/01 02:31:36;;;;;;;2.95;1.42;;;15.40;71.50;;;;;;5132892;28;20044;-73
2023/01/01 02:34:06;;;;;;;4.25;1.30;;;15.50;71.60;;;;;;5133345;28;20119;-72
2023/01/01 02:36:34;;;;;;;2.78;1.60;;;15.40;71.60;;;;;;5097774;28;20046;-72
2023/01/01 02:39:03;;;;;;;4.45;1.58;;;15.40;71.80;;;;;;5132706;28;20039;-72
2023/01/01 02:41:35;;;;;;;3.63;1.40;;;15.30;71.70;;;;;;5133144;28;20039;-73
2023/01/01 02:44:03;;;;;;;3.17;1.27;;;15.40;71.70;;;;;;5114303;28;20141;-72
2023/01/01 02:46:31;;;;;;;3.03;1.38;;;15.40;71.60;;;;;;5133133;28;20035;-72
2023/01/01 02:48:57;;;;;;;3.50;1.23;;;15.40;71.50;;;;;;5132579;28;20065;-72
2023/01/01 02:51:37;;;;;;;3.65;1.13;;;15.40;71.40;;;;;;5114592;28;20478;-72
2023/01/01 02:54:29;;;;;;;2.35;1.20;;;15.40;71.60;;;;;;5132464;28;20046;-73
2023/01/01 02:57:15;;;;;;;3.50;1.52;;;15.30;71.60;;;;;;5131421;28;20039;-72
2023/01/01 03:03:22;;;;;;;2.42;1.20;;;15.40;71.40;;;;;;5132256;28;20122;-72
2023/01/01 03:09:18;;;;;;;3.22;1.33;;;15.40;71.20;;;;;;5132225;28;20417;-72
2023/01/01 03:11:55;;;;;;;4.55;2.33;;;15.40;71.30;;;;;;5135359;28;20509;-72
2023/01/01 03:14:33;;;;;;;3.65;2.15;;;15.30;71.50;;;;;;5117118;28;20098;-72
2023/01/01 03:17:10;;;;;;;9.60;5.38;;;15.30;71.60;;;;;;5135544;28;20069;-72
2023/01/01 03:19:40;;;;;;;7.88;4.97;;;15.30;71.60;;;;;;5135424;28;20122;-72
2023/01/01 03:22:09;;;;;;;7.22;4.55;;;15.20;71.70;;;;;;5135442;28;20118;-72
2023/01/01 03:24:52;;;;;;;8.43;4.90;;;15.20;71.80;;;;;;5116893;28;20114;-72
2023/01/01 03:27:24;;;;;;;7.35;4.63;;;15.10;71.90;;;;;;5135338;28;20043;-72
2023/01/01 03:29:55;;;;;;;7.38;4.50;;;15.20;72.00;;;;;;5135305;28;20043;-72
2023/01/01 03:32:59;;;;;;;7.78;4.32;;;15.20;71.90;;;;;;5117010;28;20054;-72
2023/01/01 03:35:16;;;;;;;8.10;3.78;;;15.10;72.00;;;;;;5119730;28;20371;-72
2023/01/01 03:37:47;;;;;;;5.80;3.22;;;15.10;72.10;;;;;;5135248;28;20048;-72
2023/01/01 03:40:14;;;;;;;5.25;3.00;;;15.00;72.00;;;;;;5135233;28;20035;-71
2023/01/01 03:42:45;;;;;;;4.32;2.55;;;15.10;72.00;;;;;;5135270;28;20042;-72
2023/01/01 03:45:19;;;;;;;4.03;2.22;;;15.10;72.20;;;;;;5135432;28;20035;-72
2023/01/01 03:47:45;;;;;;;4.57;1.95;;;15.00;72.30;;;;;;5135384;28;20095;-72
2023/01/01 03:50:12;;;;;;;5.65;1.80;;;14.90;72.40;;;;;;5116783;28;20438;-72
2023/01/01 03:52:56;;;;;;;3.72;1.80;;;15.00;72.50;;;;;;5135582;28;20039;-72
2023/01/01 03:55:35;;;;;;;3.28;1.50;;;15.00;72.50;;;;;;5135127;28;20126;-72
2023/01/01 03:58:12;;;;;;;3.63;1.63;;;14.90;72.50;;;;;;5099465;28;20543;-72
2023/01/01 04:00:52;;;;;;;3.40;1.42;;;14.90;72.60;;;;;;5116744;28;20042;-72
2023/01/01 04:03:24;;;;;;;3.37;1.40;;;14.90;72.60;;;;;;5134915;28;20061;-72
2023/01/01 04:05:50;;;;;;;2.25;1.10;;;14.90;72.60;;;;;;5116497;28;20303;-72
2023/01/01 04:08:16;;;;;;;4.55;1.25;;;14.90;72.70;;;;;;5134961;28;20039;-72
2023/01/01 04:10:45;;;;;;;2.28;1.08;;;14.90;72.70;;;;;;5099669;28;20043;-72
2023/01/01 04:13:11;;;;;;;2.03;1.02;;;14.90;72.70;;;;;;5134734;28;20477;-71
2023/01/01 04:15:37;;;;;;;3.65;1.35;;;14.90;72.60;;;;;;5116771;28;20042;-72
2023/01/01 04:18:03;;;;;;;3.08;1.30;;;14.90;72.60;;;;;;5116303;28;20043;-72
2023/01/01 04:20:29;;;;;;;2.55;1.27;;;14.90;72.50;;;;;;5134728;28;20050;-72
2023/01/01 04:22:56;;;;;;;1.88;1.15;;;14.90;72.50;;;;;;5115357;28;20470;-72
2023/01/01 04:25:22;;;;;;;1.85;1.30;;;14.90;72.40;;;;;;5116774;28;20123;-72
2023/01/01 04:27:47;;;;;;;3.42;1.25;;;14.90;72.20;;;;;;5134771;28;20490;-72
2023/01/01 04:30:14;;;;;;;1.20;1.00;;;14.90;72.20;;;;;;5134598;28;20156;-72
2023/01/01 04:32:40;;;;;;;3.03;1.23;;;14.90;72.20;;;;;;5134712;28;20084;-72
2023/01/01 04:35:07;;;;;;;2.15;1.00;;;14.90;72.40;;;;;;5134871;28;20035;-72
2023/01/01 04:37:35;;;;;;;2.58;1.20;;;14.90;72.40;;;;;;5116151;28;20046;-72
2023/01/01 04:40:01;;;;;;;2.47;0.95;;;14.80;72.30;;;;;;5134669;28;20432;-72
2023/01/01 04:42:27;;;;;;;2.10;1.08;;;14.90;72.50;;;;;;5116368;28;20405;-72
2023/01/01 04:44:52;;;;;;;2.45;1.15;;;14.90;72.30;;;;;;5134588;28;20039;-72
2023/01/01 04:47:18;;;;;;;1.65;0.80;;;14.90;72.30;;;;;;5134323;28;20134;-72
2023/01/01 04:49:43;;;;;;;2.28;1.15;;;14.80;72.30;;;;;;5116041;28;20031;-72
2023/01/01 04:52:09;;;;;;;2.45;0.98;;;14.80;72.40;;;;;;5134593;28;20439;-72
2023/01/01 04:54:35;;;;;;;3.65;1.00;;;14.80;72.40;;;;;;5098801;28;20471;-72
2023/01/01 04:57:00;;;;;;;1.90;1.13;;;14.90;72.60;;;;;;5116217;28;20035;-72
2023/01/01 04:59:29;;;;;;;2.20;0.98;;;14.80;72.60;;;;;;5134567;28;20126;-72
2023/01/01 05:01:54;;;;;;;4.50;1.10;;;14.90;72.60;;;;;;5134024;28;20448;-72
2023/01/01 05:04:20;;;;;;;1.92;1.00;;;14.80;72.40;;;;;;5134298;28;20054;-72
2023/01/01 05:06:45;;;;;;;2.60;1.10;;;14.80;72.30;;;;;;5115707;28;20043;-73
2023/01/01 05:09:12;;;;;;;2.83;0.90;;;14.80;72.40;;;;;;5098718;28;20505;-74
2023/01/01 05:11:37;;;;;;;2.78;1.25;;;14.80;72.50;;;;;;5115569;28;20043;-72
2023/01/01 05:14:03;;;;;;;4.20;1.23;;;14.80;72.50;;;;;;5115662;28;20047;-72
2023/01/01 05:16:31;;;;;;;2.97;1.23;;;14.80;72.50;;;;;;5133974;28;20532;-72
2023/01/01 05:18:57;;;;;;;1.80;1.10;;;14.80;72.50;;;;;;5134408;28;20044;-73
2023/01/01 05:21:25;;;;;;;3.40;1.23;;;14.80;72.50;;;;;;5134085;28;20031;-73
2023/01/01 05:23:56;;;;;;;2.72;1.27;;;14.80;72.70;;;;;;5134364;28;20046;-72
2023/01/01 05:26:23;;;;;;;2.13;0.85;;;14.70;72.70;;;;;;5115703;28;20027;-72
2023/01/01 05:28:49;;;;;;;2.47;1.00;;;14.70;72.70;;;;;;5134019;28;20095;-72
2023/01/01 05:31:19;;;;;;;1.55;0.95;;;14.70;72.90;;;;;;5134417;28;20126;-72
2023/01/01 05:33:45;;;;;;;4.32;1.25;;;14.70;73.00;;;;;;5115372;28;20043;-72
2023/01/01 05:36:16;;;;;;;1.98;0.88;;;14.70;73.10;;;;;;5134325;28;20172;-72
2023/01/01 05:38:42;;;;;;;;;;;14.60;73.20;;;;;;5099067;28;20199;-72
2023/01/01 05:41:09;;;;;;;1.48;0.95;;;14.50;73.20;;;;;;5133817;28;19945;-72
2023/01/01 05:43:35;;;;;;;3.55;1.10;;;14.60;73.40;;;;;;5133693;28;20435;-72
2023/01/01 05:46:04;;;;;;;3.90;1.10;;;14.50;73.40;;;;;;5133623;28;20130;-72
2023/01/01 05:48:30;;;;;;;3.78;0.90;;;14.60;73.20;;;;;;5134137;28;20047;-72
2023/01/01 05:51:14;;;;;;;4.05;1.08;;;14.50;73.10;;;;;;5133509;28;20043;-73
2023/01/01 05:53:40;;;;;;;2.75;1.10;;;14.50;73.00;;;;;;5115498;28;20047;-72
2023/01/01 05:56:06;;;;;;;3.10;1.20;;;14.50;72.90;;;;;;5115908;28;20539;-72
2023/01/01 05:58:34;;;;;;;2.72;0.80;;;14.50;73.00;;;;;;5133321;28;20118;-72
2023/01/01 06:01:11;;;;;;;5.25;0.90;;;14.40;73.20;;;;;;5115036;28;20138;-72
2023/01/01 06:03:38;;;;;;;1.80;0.70;;;14.30;73.30;;;;;;5115303;28;20035;-72
2023/01/01 06:06:10;;;;;;;2.72;1.00;;;14.30;73.60;;;;;;5115084;28;20043;-72
2023/01/01 06:08:36;;;;;;;1.60;0.70;;;14.20;73.80;;;;;;5133364;28;20035;-73
2023/01/01 06:11:04;;;;;;;2.08;0.82;;;14.30;73.90;;;;;;5133843;28;20043;-72
2023/01/01 06:13:30;;;;;;;3.22;1.05;;;14.20;74.00;;;;;;5098229;28;20536;-72
2023/01/01 06:15:57;;;;;;;1.17;0.80;;;14.20;74.10;;;;;;5115468;28;20043;-72
2023/01/01 06:18:24;;;;;;;2.60;0.93;;;14.20;74.00;;;;;;5115356;28;20560;-72
2023/01/01 06:20:51;;;;;;;1.63;0.80;;;14.20;73.90;;;;;;5114986;28;20057;-72
2023/01/01 06:23:16;;;;;;;2.60;0.98;;;14.10;74.00;;;;;;5133048;28;20493;-72
2023/01/01 06:25:42;;;;;;;3.15;1.00;;;14.10;74.10;;;;;;5097829;28;20028;-72
2023/01/01 06:28:08;;;;;;;1.73;0.70;;;14.10;74.10;;;;;;5133154;28;20546;-72
2023/01/01 06:30:33;;;;;;;1.38;0.90;;;14.10;74.20;;;;;;5132998;28;20417;-72
2023/01/01 06:33:00;;;;;;;2.45;0.88;;;14.00;74.20;;;;;;5133454;28;20112;-72
2023/01/01 06:35:26;;;;;;;1.73;0.70;;;14.00;74.30;;;;;;5133231;28;20118;-72
2023/01/01 06:37:52;;;;;;;0.90;0.40;;;13.90;74.40;;;;;;5115036;28;20051;-72
2023/01/01 06:40:17;;;;;;;0.50;0.50;;;13.80;74.60;;;;;;5132796;28;20041;-72
2023/01/01 06:42:43;;;;;;;1.20;0.70;;;13.90;74.80;;;;;;5132955;28;20067;-72
2023/01/01 06:45:09;;;;;;;1.48;0.55;;;13.80;74.90;;;;;;5133972;27;20122;-72
2023/01/01 06:47:35;;;;;;;1.23;0.50;;;13.70;75.10;;;;;;5136945;28;20050;-72
2023/01/01 06:50:03;;;;;;;0.80;0.50;;;13.70;75.30;;;;;;5118315;28;20035;-72
2023/01/01 06:52:29;;;;;;;1.30;0.60;;;13.70;75.40;;;;;;5136697;28;20047;-72
2023/01/01 06:54:55;;;;;;;1.90;0.70;;;13.70;75.50;;;;;;5117942;28;20371;-72
2023/01/01 06:57:20;;;;;;;2.13;1.00;;;13.60;75.50;;;;;;5136468;28;20547;-72
2023/01/01 06:59:46;;;;;;;1.65;0.90;;;13.70;75.50;;;;;;5117776;28;20080;-72
2023/01/01 07:02:12;;;;;;;2.05;0.75;;;13.60;75.30;;;;;;5136404;28;20039;-72
2023/01/01 07:04:38;;;;;;;2.10;0.82;;;13.60;75.10;;;;;;5117702;28;20047;-72
2023/01/01 07:07:04;;;;;;;1.92;0.73;;;13.50;75.00;;;;;;5136390;28;20031;-72
2023/01/01 07:09:30;;;;;;;1.10;0.55;;;13.40;74.90;;;;;;5117669;28;20058;-72
2023/01/01 07:11:55;;;;;;;1.17;0.60;;;13.40;75.00;;;;;;5136059;28;20043;-72
2023/01/01 07:14:21;;;;;;;0.98;0.50;;;13.30;75.00;;;;;;5135969;28;20031;-72
2023/01/01 07:16:47;;;;;;;1.80;0.80;;;13.30;75.20;;;;;;5117767;28;20494;-72
2023/01/01 07:19:12;;;;;;;0.43;0.43;;;13.20;75.40;;;;;;5135929;28;20066;-72
2023/01/01 07:21:43;;;;;;;2.13;0.50;;;13.10;75.70;;;;;;5136342;28;20059;-72
2023/01/01 07:24:11;;;;;;;1.47;0.50;;;13.00;75.90;;;;;;5136375;28;20122;-72
2023/01/01 07:26:37;;;;;;;1.92;0.50;;;12.90;76.10;;;;;;5117388;28;20308;-72
2023/01/01 07:29:03;;;;;;;1.65;0.50;;;12.80;76.30;;;;;;5117300;28;20375;-72
2023/01/01 07:31:28;;;;;;;1.02;0.52;;;12.80;76.40;;;;;;5136359;28;20074;-72
2023/01/01 07:33:54;;;;;;;2.75;0.50;;;12.80;76.50;;;;;;5117314;28;20061;-73
2023/01/01 07:36:20;;;;;;;1.05;0.43;;;12.70;76.60;;;;;;5136296;28;20574;-72
2023/01/01 07:38:45;;;;;;;0.57;0.30;;;12.60;76.70;;;;;;5136209;28;20066;-72
2023/01/01 07:41:11;;;;;;;1.33;0.52;;;12.50;76.90;;;;;;5136332;28;20089;-72
2023/01/01 07:43:37;;;;;;;1.02;0.40;;;12.50;77.20;;;;;;5117382;28;20371;-72
2023/01/01 07:46:03;;;;;;;0.40;0.30;;;12.40;77.40;;;;;;5117189;28;20089;-72
2023/01/01 07:48:29;;;;;;;0.57;0.35;;;12.30;77.60;;;;;;5135468;28;20072;-72
2023/01/01 07:50:54;;;;;;;0.73;0.30;;;12.20;77.90;;;;;;5136084;28;20054;-72
2023/01/01 07:53:20;;;;;;;0.82;0.30;;;12.10;78.10;;;;;;5135663;28;20030;-71
2023/01/01 07:55:47;;;;;;;0.60;0.28;;;12.00;78.30;;;;;;5135172;27;20150;-72
2023/01/01 07:58:12;;;;;;;1.85;0.40;;;12.00;78.50;;;;;;5134837;28;20519;-72
2023/01/01 08:00:38;;;;;;;0.55;0.40;;;11.90;78.60;;;;;;5135343;28;20043;-72
2023/01/01 08:03:05;;;;;;;0.30;0.25;;;11.90;78.60;;;;;;5135089;28;20032;-72
2023/01/01 08:05:32;;;;;;;0.63;0.30;;;11.90;78.60;;;;;;5100251;28;20035;-72
2023/01/01 08:07:58;;;;;;;0.50;0.30;;;11.90;78.60;;;;;;5135256;28;20047;-72
2023/01/01 08:10:24;;;;;;;0.73;0.52;;;11.90;78.70;;;;;;5134965;28;20077;-72
2023/01/01 08:12:49;;;;;;;1.45;0.40;;;11.90;78.70;;;;;;5135281;28;20087;-72
2023/01/01 08:15:16;;;;;;;0.70;0.40;;;12.00;78.70;;;;;;5134972;28;20394;-72
2023/01/01 08:17:42;;;;;;;0.77;0.40;;;11.90;78.70;;;;;;5134889;28;20088;-72
2023/01/01 08:20:08;;;;;;;0.65;0.40;;;12.00;78.70;;;;;;5116591;28;20118;-72
2023/01/01 08:22:34;;;;;;;1.17;0.40;;;11.90;78.60;;;;;;5117255;28;20035;-72
2023/01/01 08:25:00;;;;;;;1.08;0.30;;;12.00;78.70;;;;;;5116929;28;20535;-72
2023/01/01 08:27:25;;;;;;;1.63;0.40;;;11.90;78.70;;;;;;5116481;28;20125;-72
2023/01/01 08:29:51;;;;;;;1.17;0.38;;;11.90;78.70;;;;;;5116393;28;20043;-72
2023/01/01 08:32:17;;;;;;;0.82;0.32;;;11.90;78.70;;;;;;5099334;28;20131;-72
2023/01/01 08:34:42;;;;;;;0.63;0.38;;;12.00;78.70;;;;;;5116963;28;20470;-72
2023/01/01 08:37:12;;;;;;;1.65;0.50;;;12.00;78.70;;;;;;5135114;28;20035;-73
2023/01/01 08:39:38;;;;;;;0.30;0.30;;;11.90;78.60;;;;;;5116489;28;20043;-72
2023/01/01 08:42:04;;;;;;;2.58;0.50;;;12.00;78.70;;;;;;5116375;28;20043;-72
2023/01/01 08:44:29;;;;;;;0.98;0.55;;;12.00;78.80;;;;;;5135000;28;20035;-72
2023/01/01 08:46:55;;;;;;;0.73;0.40;;;12.00;78.80;;;;;;5134662;28;20031;-72
2023/01/01 08:49:20;;;;;;;0.73;0.30;;;12.00;78.80;;;;;;5116154;28;20470;-73
2023/01/01 08:51:46;;;;;;;2.20;0.50;;;12.00;78.80;;;;;;5116099;28;20055;-72
2023/01/01 08:54:12;;;;;;;1.52;0.40;;;12.00;78.80;;;;;;5134301;28;20039;-73
2023/01/01 08:56:37;;;;;;;0.80;0.40;;;12.00;78.80;;;;;;5116706;28;20076;-72
2023/01/01 08:59:03;;;;;;;0.55;0.30;;;12.00;78.80;;;;;;5115997;28;20050;-73
2023/01/01 09:01:29;;;;;;;0.90;0.28;;;12.00;78.90;;;;;;5134914;28;20031;-73
2023/01/01 09:03:54;;;;;;;0.40;0.30;;;12.00;79.00;;;;;;5135064;28;20073;-72
2023/01/01 09:06:20;;;;;;;1.00;0.40;;;12.00;78.90;;;;;;5116124;28;20043;-72
2023/01/01 09:08:46;;;;;;;0.95;0.30;;;12.00;78.90;;;;;;5115404;28;20486;-72
2023/01/01 09:11:27;;;;;;;0.90;0.30;;;12.00;79.00;;;;;;5134730;28;20047;-72
2023/01/01 09:13:53;;;;;;;1.35;0.40;;;12.00;79.00;;;;;;5115867;28;20043;-72
2023/01/01 09:16:20;;;;;;;0.90;0.32;;;12.10;79.10;;;;;;5134728;28;20066;-72
2023/01/01 09:18:46;;;;;;;1.80;0.55;;;12.10;79.10;;;;;;5134487;28;20106;-72
2023/01/01 09:21:11;;;;;;;0.70;0.40;;;12.10;79.10;;;;;;5134093;28;20064;-72
2023/01/01 09:23:37;;;;;;;1.60;0.40;;;12.10;79.20;;;;;;5134072;28;20047;-72
2023/01/01 09:26:04;;;;;;;0.88;0.43;;;12.10;79.10;;;;;;5115771;28;20096;-73
2023/01/01 09:28:30;;;;;;;1.13;0.47;;;12.10;79.20;;;;;;5133896;28;20042;-72
2023/01/01 09:30:56;;;;;;;0.52;0.35;;;12.10;79.30;;;;;;5116156;28;20065;-72
2023/01/01 09:33:21;;;;;;;1.52;0.45;;;12.10;79.30;;;;;;5133692;28;20035;-72
2023/01/01 09:35:47;;;;;;;2.70;0.50;;;12.10;79.40;;;;;;5098321;28;20043;-72
2023/01/01 09:38:12;;;;;;;1.50;0.40;;;12.10;79.60;;;;;;5115178;28;20039;-72
2023/01/01 09:40:52;;;;;;;1.23;0.40;;;12.10;79.70;;;;;;5115205;28;20478;-72
2023/01/01 09:43:33;;;;;;;2.55;0.50;;;12.10;79.70;;;;;;5115340;28;20047;-72
2023/01/01 09:46:02;;;;;;;1.25;0.68;;;12.10;79.80;;;;;;5133771;28;20059;-72
2023/01/01 09:48:30;;;;;;;2.25;0.73;;;12.10;79.80;;;;;;5133765;28;20039;-72
2023/01/01 09:50:59;;;;;;;0.80;0.30;;;12.20;79.80;;;;;;5115223;28;20032;-72
2023/01/01 09:53:34;;;;;;;1.30;0.50;;;12.20;79.90;;;;;;5134211;28;20493;-72
2023/01/01 09:56:02;;;;;;;0.90;0.45;;;12.20;80.00;;;;;;5134002;28;20462;-72
2023/01/01 09:58:33;;;;;;;0.88;0.40;;;12.20;80.00;;;;;;5115164;28;20054;-72
2023/01/01 10:01:19;;;;;;;1.33;0.32;;;12.20;80.00;;;;;;5115567;28;20423;-72
2023/01/01 10:04:19;;;;;;;0.88;0.50;;;12.20;80.10;;;;;;5133546;28;20489;-72
2023/01/01 10:06:59;;;;;;;0.50;0.40;;;12.20;80.20;;;;;;5131486;28;20076;-73
2023/01/01 10:09:36;;;;;;;2.03;0.65;;;12.30;80.20;;;;;;5133807;28;20088;-72
2023/01/01 10:12:29;;;;;;;1.40;0.45;;;12.30;80.30;;;;;;5114958;28;20047;-72
2023/01/01 10:15:07;;;;;;;1.80;0.52;;;12.30;80.30;;;;;;5132982;28;20809;-72
2023/01/01 10:17:41;;;;;;;2.40;0.50;;;12.30;80.40;;;;;;5133083;28;20040;-72
2023/01/01 10:20:22;;;;;;;1.58;0.50;;;12.20;80.50;;;;;;5134672;27;20038;-72
2023/01/01 10:22:54;;;;;;;1.70;0.50;;;12.20;80.70;;;;;;5118382;28;20409;-72
2023/01/01 10:25:23;;;;;;;1.38;0.40;;;12.10;80.90;;;;;;5136949;28;20464;-72
2023/01/01 10:27:57;;;;;;;1.45;0.70;;;12.10;81.20;;;;;;5136997;28;20046;-72
2023/01/01 10:30:24;;;;;;;1.42;0.45;;;12.00;81.40;;;;;;5118225;28;20095;-72
2023/01/01 10:32:52;;;;;;;1.92;0.70;;;12.00;81.70;;;;;;5136820;28;20379;-73
2023/01/01 10:35:31;;;;;;;1.92;0.65;;;11.90;81.90;;;;;;5118362;28;20135;-72
2023/01/01 10:37:59;;;;;;;2.40;0.50;;;11.90;82.10;;;;;;5102839;28;20051;-74
2023/01/01 10:40:26;;;;;;;2.28;0.50;;;11.90;82.30;;;;;;5084527;28;20474;-73
2023/01/01 10:42:54;;;;;;;1.45;0.50;;;11.80;82.50;;;;;;5101474;28;20031;-73
2023/01/01 10:45:37;;;;;;;1.70;0.55;;;11.80;82.60;;;;;;5101178;28;20059;-72
2023/01/01 10:48:17;;;;;;;2.03;0.60;;;11.70;82.70;;;;;;5101111;28;20453;-72
2023/01/01 10:50:51;;;;;;;1.38;0.50;;;11.70;82.90;;;;;;5101068;28;20134;-75
2023/01/01 10:53:25;;;;;;;0.70;0.50;;;11.70;83.00;;;;;;5084600;28;20039;-75
2023/01/01 10:55:59;;;;;;;1.10;0.60;;;11.60;83.10;;;;;;5102143;28;20050;-74
2023/01/01 10:58:44;;;;;;;0.77;0.50;;;11.60;83.30;;;;;;5136448;28;20035;-72
2023/01/01 11:01:20;;;;;;;1.90;0.40;;;11.70;83.50;;;;;;5137057;28;20122;-75
2023/01/01 11:04:16;;;;;;;0.65;0.50;;;11.60;83.50;;;;;;5119605;28;20031;-73
2023/01/01 11:06:47;;;;;;;0.47;0.38;;;11.60;83.70;;;;;;5136826;28;20077;-72
2023/01/01 11:09:21;;;;;;;;;;;11.50;83.70;;;;;;5136645;28;20402;-73
2023/01/01 11:11:54;;;;;;;0.93;0.47;;;11.50;83.70;;;;;;5117558;28;19922;-73
2023/01/01 11:14:40;;;;;;;0.50;0.35;;;11.60;83.70;;;;;;5117633;28;20058;-72
2023/01/01 11:17:08;;;;;;;1.75;0.52;;;11.70;83.70;;;;;;5086231;28;20035;-73
2023/01/01 11:19:36;;;;;;;1.02;0.50;;;11.70;83.70;;;;;;5100951;28;20123;-72
2023/01/01 11:22:03;;;;;;;1.52;0.50;;;11.70;83.70;;;;;;5117438;28;20074;-72
2023/01/01 11:24:31;;;;;;;1.17;0.47;;;11.70;84.30;;;;;;5083670;28;20046;-72
2023/01/01 11:27:19;;;;;;;1.05;0.50;;;11.80;83.70;;;;;;5117452;28;20036;-72
2023/01/01 11:29:45;;;;;;;0.68;0.50;;;11.80;83.80;;;;;;5117771;28;20035;-73
2023/01/01 11:32:19;;;;;;;0.45;0.40;;;11.80;83.70;;;;;;5116941;28;20077;-74
2023/01/01 11:34:47;;;;;;;1.98;0.65;;;11.80;83.80;;;;;;5101033;28;20088;-74
2023/01/01 11:37:25;;;;;;;1.45;0.50;;;11.90;83.90;;;;;;5135764;28;20039;-74
2023/01/01 11:39:53;;;;;;;1.65;0.50;;;11.90;83.90;;;;;;5083962;28;20474;-73
2023/01/01 11:42:35;;;;;;;2.33;0.50;;;11.90;84.00;;;;;;5117057;28;20557;-74
2023/01/01 11:45:08;;;;;;;0.70;0.50;;;11.90;84.10;;;;;;5117337;28;20046;-74
2023/01/01 11:47:37;;;;;;;1.40;0.60;;;12.00;84.00;;;;;;5100824;28;20050;-74
2023/01/01 11:50:21;;;;;;;0.77;0.57;;;12.00;84.00;;;;;;5117296;28;20046;-75
2023/01/01 11:52:49;;;;;;;0.80;0.50;;;12.10;84.10;;;;;;5084249;28;20039;-74
2023/01/01 11:55:38;;;;;;;0.75;0.50;;;12.10;84.00;;;;;;5099898;28;20502;-73
2023/01/01 11:58:17;;;;;;;1.02;0.57;;;12.10;84.10;;;;;;5103198;28;20035;-74
2023/01/01 12:00:46;;;;;;;0.85;0.57;;;12.20;84.10;;;;;;5101054;28;20039;-73
2023/01/01 12:03:24;;;;;;;1.77;0.65;;;12.20;84.10;;;;;;5100248;28;20035;-73
2023/01/01 12:06:06;;;;;;;0.77;0.50;;;12.20;84.10;;;;;;5100004;28;20046;-74
2023/01/01 12:08:43;;;;;;;1.08;0.68;;;12.30;84.10;;;;;;5117832;28;20035;-73
2023/01/01 12:11:29;;;;;;;1.88;0.80;;;12.40;84.20;;;;;;5116884;28;20054;-74
2023/01/01 12:14:02;;;;;;;2.42;0.75;;;12.30;84.10;;;;;;5118877;28;20390;-74
2023/01/01 12:16:47;;;;;;;0.80;0.70;;;12.40;84.10;;;;;;5135680;28;20043;-73
2023/01/01 12:19:27;;;;;;;3.15;0.73;;;12.40;84.10;;;;;;5135453;28;20035;-74
2023/01/01 12:21:57;;;;;;;2.42;0.80;;;12.50;84.20;;;;;;5135349;28;20043;-74
2023/01/01 12:24:31;;;;;;;1.92;0.90;;;12.50;84.00;;;;;;5117046;28;21181;-74
2023/01/01 12:27:14;;;;;;;3.72;1.00;;;12.50;84.00;;;;;;5135196;28;20444;-74
2023/01/01 12:29:58;;;;;;;1.48;0.80;;;12.60;84.10;;;;;;5135103;28;20075;-74
2023/01/01 12:32:49;;;;;;;2.17;0.95;;;12.60;84.10;;;;;;5134960;28;20088;-74
2023/01/01 12:35:40;;;;;;;1.55;1.10;;;12.60;84.00;;;;;;5134726;28;20043;-74
2023/01/01 12:38:41;;;;;;;1.48;0.82;;;12.70;84.10;;;;;;5134503;28;20061;-74
2023/01/01 12:41:41;;;;;;;1.20;0.82;;;12.80;84.00;;;;;;5134558;28;20039;-75
2023/01/01 12:44:29;;;;;;;2.22;1.00;;;12.90;83.80;;;;;;5133584;27;20049;-74
2023/01/01 12:47:21;;;;;;;1.13;0.90;;;13.10;83.50;;;;;;5134938;28;20455;-74
2023/01/01 12:50:09;;;;;;;2.88;0.95;;;13.20;83.30;;;;;;5101663;28;20142;-74
2023/01/01 12:53:11;;;;;;;0.68;0.60;;;13.30;83.10;;;;;;5134629;28;20114;-74
2023/01/01 12:56:02;;;;;;;2.97;1.30;;;13.30;83.10;;;;;;5134252;28;20039;-74
2023/01/01 12:58:35;;;;;;;2.03;0.97;;;13.30;83.00;;;;;;5134588;28;20039;-72
2023/01/01 13:01:21;;;;;;;2.85;1.00;;;13.50;83.10;;;;;;5134832;28;20050;-73
2023/01/01 13:03:52;;;;;;;3.60;1.23;;;13.40;83.00;;;;;;5116669;28;20482;-74
2023/01/01 13:06:24;;;;;;;2.22;0.95;;;13.40;83.10;;;;;;5134993;28;20039;-74
2023/01/01 13:08:58;;;;;;;1.58;0.80;;;13.40;83.10;;;;;;5134385;28;20501;-74
2023/01/01 13:11:26;;;;;;;1.70;0.90;;;13.40;83.10;;;;;;5115697;28;20050;-74
2023/01/01 13:13:52;;;;;;;1.65;0.70;;;13.40;83.10;;;;;;5134921;28;20035;-74